Time;durP1;ratioP1;P1;durP2;ratioP2;P2;SDS_P1;SDS_P2;PMS_P1;PMS_P2;Temp;Humidity;BMP_temperature;BMP_pressure;BME280_temperature;BME280_humidity;BME280_pressure;Samples;Min_cycle;Max_cycle;Signal;HPM_P1;HPM_P2
2022/04/13 00:00:09;;;;;;;;;;;24.30;47.00;;;;;;5073697;28;990;-44
2022/04/13 00:02:36;;;;;;;;;;;24.30;46.90;;;;;;5073894;28;1075;-43
2022/04/13 00:05:03;;;;;;;;;;;24.30;46.90;;;;;;5072899;28;1902;-44
2022/04/13 00:07:31;;;;;;;;;;;24.30;47.00;;;;;;5072995;28;1038;-45
2022/04/13 00:09:58;;;;;;;;;;;24.30;47.10;;;;;;5072670;28;936;-43
2022/04/13 00:12:25;;;;;;;;;;;24.40;46.90;;;;;;5074784;28;1032;-44
2022/04/13 00:14:52;;;;;;;;;;;24.30;46.90;;;;;;5073796;28;983;-43
2022/04/13 00:17:19;;;;;;;;;;;24.30;47.00;;;;;;5073971;28;996;-44
2022/04/13 00:19:45;;;;;;;;;;;24.30;47.00;;;;;;5073150;28;1024;-43
2022/04/13 00:22:12;;;;;;;;;;;24.30;47.10;;;;;;5075477;28;944;-43
2022/04/13 00:24:40;;;;;;;;;;;24.30;47.10;;;;;;5076209;28;1901;-43
2022/04/13 00:27:07;;;;;;;;;;;24.30;47.10;;;;;;5077589;28;995;-43
2022/04/13 00:29:34;;;;;;;;;;;24.30;47.10;;;;;;5077123;28;947;-44
2022/04/13 00:32:03;;;;;;;;;;;24.30;47.00;;;;;;5077586;28;925;-42
2022/04/13 00:34:30;;;;;;;;;;;24.30;46.90;;;;;;5076013;28;881;-42
2022/04/13 00:36:57;;;;;;;;;;;24.30;47.00;;;;;;5078634;28;1004;-43
2022/04/13 00:39:24;;;;;;;;;;;24.30;47.00;;;;;;5076970;28;1081;-43
2022/04/13 00:41:57;;;;;;;;;;;24.30;47.10;;;;;;5078836;28;1089;-40
2022/04/13 00:44:23;;;;;;;;;;;24.30;46.90;;;;;;5077824;28;1887;-44
2022/04/13 00:46:50;;;;;;;;;;;24.30;46.90;;;;;;5078139;28;994;-43
2022/04/13 00:49:17;;;;;;;;;;;24.30;46.80;;;;;;5077791;28;1055;-43
2022/04/13 00:51:44;;;;;;;;;;;24.40;46.90;;;;;;5078113;28;889;-43
2022/04/13 00:54:11;;;;;;;;;;;24.40;46.60;;;;;;5077506;28;991;-43
2022/04/13 00:56:41;;;;;;;;;;;24.50;47.80;;;;;;5076802;28;1028;-40
2022/04/13 00:59:10;;;;;;;;;;;24.40;46.70;;;;;;5077483;28;988;-44
2022/04/13 01:01:37;;;;;;;;;;;24.50;46.70;;;;;;5076974;28;1008;-41
2022/04/13 01:04:04;;;;;;;;;;;24.40;46.60;;;;;;5077501;28;1010;-41
2022/04/13 01:06:31;;;;;;;;;;;24.40;46.70;;;;;;5076834;28;1988;-43
2022/04/13 01:08:59;;;;;;;;;;;24.40;46.70;;;;;;5076027;28;897;-44
2022/04/13 01:11:27;;;;;;;;;;;24.40;46.80;;;;;;5076268;28;1017;-43
2022/04/13 01:13:55;;;;;;;;;;;24.40;46.80;;;;;;5075723;28;1757;-42
2022/04/13 01:16:24;;;;;;;;;;;24.40;46.80;;;;;;5077145;28;1023;-43
2022/04/13 01:18:51;;;;;;;;;;;24.30;46.70;;;;;;5076738;28;1015;-42
2022/04/13 01:21:19;;;;;;;;;;;24.30;46.80;;;;;;5076843;28;1007;-40
2022/04/13 01:23:50;;;;;;;;;;;24.30;46.90;;;;;;5076561;28;942;-42
2022/04/13 01:26:16;;;;;;;;;;;24.30;47.00;;;;;;5076121;28;1910;-42
2022/04/13 01:28:43;;;;;;;;;;;24.30;47.00;;;;;;5076065;28;1011;-43
2022/04/13 01:31:10;;;;;;;;;;;24.30;46.90;;;;;;5076063;28;945;-43
2022/04/13 01:33:40;;;;;;;;;;;24.30;46.90;;;;;;5076064;28;933;-43
2022/04/13 01:36:07;;;;;;;;;;;24.30;47.00;;;;;;5075300;28;1015;-43
2022/04/13 01:38:34;;;;;;;;;;;24.30;47.00;;;;;;5075575;28;1101;-39
2022/04/13 01:41:02;;;;;;;;;;;24.30;47.20;;;;;;5075161;28;972;-41
2022/04/13 01:43:29;;;;;;;;;;;24.30;47.10;;;;;;5076008;28;953;-42
2022/04/13 01:45:57;;;;;;;;;;;24.30;47.10;;;;;;5074372;28;1906;-44
2022/04/13 01:48:24;;;;;;;;;;;24.30;47.10;;;;;;5074374;28;893;-44
2022/04/13 01:50:50;;;;;;;;;;;24.20;47.10;;;;;;5074490;28;1003;-44
2022/04/13 01:53:17;;;;;;;;;;;24.20;47.10;;;;;;5074696;28;933;-43
2022/04/13 01:55:44;;;;;;;;;;;24.30;47.10;;;;;;5074843;28;1004;-44
2022/04/13 01:58:12;;;;;;;;;;;24.20;47.10;;;;;;5075301;28;999;-43
2022/04/13 02:00:38;;;;;;;;;;;24.30;47.10;;;;;;5074104;28;999;-44
2022/04/13 02:03:06;;;;;;;;;;;24.30;47.10;;;;;;5074871;28;884;-43
2022/04/13 02:05:33;;;;;;;;;;;24.30;47.10;;;;;;5074804;28;1902;-40
2022/04/13 02:08:00;;;;;;;;;;;24.30;47.10;;;;;;5075524;28;969;-43
2022/04/13 02:10:26;;;;;;;;;;;24.20;47.10;;;;;;5075882;28;1012;-42
2022/04/13 02:12:53;;;;;;;;;;;24.20;47.10;;;;;;5075123;28;955;-44
2022/04/13 02:15:21;;;;;;;;;;;24.30;47.00;;;;;;5075996;28;937;-43
2022/04/13 02:17:48;;;;;;;;;;;24.20;47.20;;;;;;5075140;28;1056;-43
2022/04/13 02:20:15;;;;;;;;;;;24.20;47.20;;;;;;5076207;28;991;-43
2022/04/13 02:25:44;;;;;;;;;;;24.20;47.10;;;;;;5074662;28;1917;-42
2022/04/13 02:28:11;;;;;;;;;;;24.20;47.20;;;;;;5075111;28;944;-43
2022/04/13 02:30:39;;;;;;;;;;;24.20;47.20;;;;;;5074821;28;906;-42
2022/04/13 02:33:06;;;;;;;;;;;24.20;47.10;;;;;;5074750;28;1024;-43
2022/04/13 02:35:33;;;;;;;;;;;24.20;47.10;;;;;;5073925;28;962;-44
2022/04/13 02:37:59;;;;;;;;;;;24.20;47.10;;;;;;5074600;28;1016;-44
2022/04/13 02:40:26;;;;;;;;;;;24.20;47.10;;;;;;5074133;28;976;-43
2022/04/13 02:42:53;;;;;;;;;;;24.20;47.10;;;;;;5075450;28;928;-44
2022/04/13 02:45:19;;;;;;;;;;;24.20;47.10;;;;;;5073870;28;1898;-41
2022/04/13 02:47:47;;;;;;;;;;;24.20;47.10;;;;;;5074224;28;912;-43
2022/04/13 02:50:16;;;;;;;;;;;24.30;47.20;;;;;;5074119;28;1004;-41
2022/04/13 02:52:43;;;;;;;;;;;24.20;47.10;;;;;;5075133;28;987;-43
2022/04/13 02:55:12;;;;;;;;;;;24.20;47.10;;;;;;5075150;28;952;-40
2022/04/13 02:57:39;;;;;;;;;;;24.30;47.00;;;;;;5075187;28;1025;-42
2022/04/13 03:00:07;;;;;;;;;;;24.30;47.00;;;;;;5073973;28;980;-42
2022/04/13 03:02:33;;;;;;;;;;;24.20;47.10;;;;;;5073075;28;924;-40
2022/04/13 03:05:01;;;;;;;;;;;24.20;47.00;;;;;;5074558;28;1909;-42
2022/04/13 03:07:30;;;;;;;;;;;24.30;47.10;;;;;;5073834;28;896;-43
2022/04/13 03:09:57;;;;;;;;;;;24.40;46.80;;;;;;5073519;28;995;-42
2022/04/13 03:12:24;;;;;;;;;;;24.50;46.50;;;;;;5073217;28;1018;-42
2022/04/13 03:14:51;;;;;;;;;;;24.40;46.70;;;;;;5074047;28;870;-41
2022/04/13 03:17:17;;;;;;;;;;;24.30;47.00;;;;;;5074328;28;1075;-43
2022/04/13 03:19:44;;;;;;;;;;;24.20;47.10;;;;;;5075088;28;945;-44
2022/04/13 03:22:12;;;;;;;;;;;24.20;47.20;;;;;;5074723;28;995;-42
2022/04/13 03:24:39;;;;;;;;;;;24.20;47.20;;;;;;5074670;28;920;-42
2022/04/13 03:27:06;;;;;;;;;;;24.20;47.40;;;;;;5073398;28;1991;-42
2022/04/13 03:29:33;;;;;;;;;;;24.20;47.30;;;;;;5074746;28;957;-43
2022/04/13 03:31:59;;;;;;;;;;;24.20;47.40;;;;;;5073648;28;937;-43
2022/04/13 03:34:27;;;;;;;;;;;24.20;47.20;;;;;;5073526;28;968;-43
2022/04/13 03:36:53;;;;;;;;;;;24.20;47.40;;;;;;5073692;28;896;-43
2022/04/13 03:39:21;;;;;;;;;;;24.20;47.30;;;;;;5074912;28;1151;-43
2022/04/13 03:41:48;;;;;;;;;;;24.20;47.30;;;;;;5074232;28;1015;-43
2022/04/13 03:44:15;;;;;;;;;;;24.20;47.40;;;;;;5073236;28;1020;-43
2022/04/13 03:46:42;;;;;;;;;;;24.10;47.40;;;;;;5073571;28;1902;-44
2022/04/13 03:49:08;;;;;;;;;;;24.10;47.30;;;;;;5073210;28;975;-43
2022/04/13 03:51:36;;;;;;;;;;;24.20;47.40;;;;;;5071840;28;986;-43
2022/04/13 03:54:02;;;;;;;;;;;24.20;47.40;;;;;;5072020;28;1034;-44
2022/04/13 03:56:30;;;;;;;;;;;24.20;47.30;;;;;;5071310;28;912;-43
2022/04/13 03:58:58;;;;;;;;;;;24.10;47.30;;;;;;5072039;28;1008;-42
2022/04/13 04:01:25;;;;;;;;;;;24.20;47.40;;;;;;5072231;28;961;-43
2022/04/13 04:03:52;;;;;;;;;;;24.10;47.40;;;;;;5072755;28;1021;-41
2022/04/13 04:06:19;;;;;;;;;;;24.10;47.40;;;;;;5071391;28;1906;-42
2022/04/13 04:08:45;;;;;;;;;;;24.10;47.50;;;;;;5070973;28;953;-43
2022/04/13 04:11:14;;;;;;;;;;;24.10;47.50;;;;;;5072329;28;853;-42
2022/04/13 04:13:42;;;;;;;;;;;24.10;47.40;;;;;;5073830;28;940;-43
2022/04/13 04:16:08;;;;;;;;;;;24.10;47.40;;;;;;5073546;28;926;-43
2022/04/13 04:18:35;;;;;;;;;;;24.10;47.40;;;;;;5073422;28;944;-43
2022/04/13 04:21:04;;;;;;;;;;;24.10;47.40;;;;;;5071626;28;1020;-43
2022/04/13 04:23:31;;;;;;;;;;;24.10;47.40;;;;;;5072348;28;952;-43
2022/04/13 04:25:58;;;;;;;;;;;24.10;47.50;;;;;;5073444;28;1972;-42
2022/04/13 04:28:25;;;;;;;;;;;24.10;47.30;;;;;;5072116;28;911;-42
2022/04/13 04:30:53;;;;;;;;;;;24.10;47.50;;;;;;5072627;28;1050;-42
2022/04/13 04:33:19;;;;;;;;;;;24.10;47.50;;;;;;5070834;28;976;-43
2022/04/13 04:35:47;;;;;;;;;;;24.10;47.50;;;;;;5072381;28;1008;-42
2022/04/13 04:38:14;;;;;;;;;;;24.10;47.50;;;;;;5070541;28;1008;-43
2022/04/13 04:40:41;;;;;;;;;;;24.10;47.60;;;;;;5070963;28;908;-40
2022/04/13 04:43:07;;;;;;;;;;;24.10;47.50;;;;;;5069885;28;1016;-43
2022/04/13 04:45:34;;;;;;;;;;;24.00;47.50;;;;;;5071077;28;1975;-44
2022/04/13 04:48:04;;;;;;;;;;;24.00;47.50;;;;;;5071355;28;937;-43
2022/04/13 04:50:31;;;;;;;;;;;24.10;48.60;;;;;;5071718;28;981;-42
2022/04/13 04:52:58;;;;;;;;;;;24.10;47.40;;;;;;5071713;28;1051;-43
2022/04/13 04:55:25;;;;;;;;;;;24.10;47.40;;;;;;5069513;28;916;-44
2022/04/13 04:57:51;;;;;;;;;;;24.10;47.40;;;;;;5071795;28;1004;-43
2022/04/13 05:00:19;;;;;;;;;;;24.10;47.40;;;;;;5071625;28;980;-43
2022/04/13 05:02:46;;;;;;;;;;;24.10;47.40;;;;;;5070654;28;1019;-43
2022/04/13 05:05:15;;;;;;;;;;;24.10;47.40;;;;;;5069461;28;1048;-43
2022/04/13 05:07:42;;;;;;;;;;;24.10;47.50;;;;;;5071026;28;1991;-43
2022/04/13 05:10:09;;;;;;;;;;;24.10;47.50;;;;;;5073184;28;960;-42
2022/04/13 05:12:42;;;;;;;;;;;24.10;47.60;;;;;;5073623;28;1026;-43
2022/04/13 05:15:09;;;;;;;;;;;24.00;47.50;;;;;;5074349;28;1027;-43
2022/04/13 05:17:37;;;;;;;;;;;24.00;47.40;;;;;;5073702;28;1168;-43
2022/04/13 05:20:04;;;;;;;;;;;24.00;47.50;;;;;;5073849;28;1028;-43
2022/04/13 05:22:32;;;;;;;;;;;24.00;47.50;;;;;;5073093;28;978;-42
2022/04/13 05:25:01;;;;;;;;;;;24.10;47.50;;;;;;5073265;28;936;-41
2022/04/13 05:27:28;;;;;;;;;;;24.10;47.30;;;;;;5074101;28;1977;-42
2022/04/13 05:29:55;;;;;;;;;;;24.10;47.40;;;;;;5074204;28;933;-42
2022/04/13 05:32:21;;;;;;;;;;;24.10;47.40;;;;;;5073375;28;977;-43
2022/04/13 05:34:48;;;;;;;;;;;24.10;47.30;;;;;;5073202;28;1003;-41
2022/04/13 05:37:15;;;;;;;;;;;24.10;47.40;;;;;;5072568;28;1043;-42
2022/04/13 05:39:45;;;;;;;;;;;24.10;47.40;;;;;;5072053;28;1216;-42
2022/04/13 05:42:12;;;;;;;;;;;24.00;47.50;;;;;;5072802;28;1002;-42
2022/04/13 05:44:39;;;;;;;;;;;24.10;47.50;;;;;;5073467;28;915;-42
2022/04/13 05:47:06;;;;;;;;;;;24.10;47.30;;;;;;5072126;28;1910;-43
2022/04/13 05:49:32;;;;;;;;;;;24.10;47.40;;;;;;5072515;28;888;-40
2022/04/13 05:51:59;;;;;;;;;;;24.20;47.40;;;;;;5071583;28;987;-44
2022/04/13 05:54:26;;;;;;;;;;;24.10;47.40;;;;;;5073154;28;1027;-40
2022/04/13 05:56:54;;;;;;;;;;;24.10;47.30;;;;;;5071171;28;989;-42
2022/04/13 05:59:20;;;;;;;;;;;24.20;47.30;;;;;;5070986;28;992;-39
2022/04/13 06:01:47;;;;;;;;;;;24.20;47.20;;;;;;5072231;28;904;-42
2022/04/13 06:04:14;;;;;;;;;;;24.10;47.30;;;;;;5071723;28;1024;-42
2022/04/13 06:06:41;;;;;;;;;;;24.20;47.20;;;;;;5073104;28;1906;-42
2022/04/13 06:09:07;;;;;;;;;;;24.30;47.40;;;;;;5070013;28;865;-40
2022/04/13 06:11:34;;;;;;;;;;;24.30;46.80;;;;;;5070438;28;896;-42
2022/04/13 06:14:02;;;;;;;;;;;24.30;47.10;;;;;;5070591;28;1005;-43
2022/04/13 06:16:29;;;;;;;;;;;24.20;47.20;;;;;;5071278;28;988;-37
2022/04/13 06:18:56;;;;;;;;;;;24.20;47.20;;;;;;5071102;28;928;-42
2022/04/13 06:21:23;;;;;;;;;;;24.20;47.30;;;;;;5070596;28;1025;-41
2022/04/13 06:23:50;;;;;;;;;;;24.10;47.30;;;;;;5071210;28;888;-44
2022/04/13 06:26:17;;;;;;;;;;;24.20;47.40;;;;;;5069715;28;1909;-43
2022/04/13 06:28:44;;;;;;;;;;;24.10;47.40;;;;;;5070079;28;822;-44
2022/04/13 06:31:12;;;;;;;;;;;24.10;47.30;;;;;;5069793;28;960;-43
2022/04/13 06:33:39;;;;;;;;;;;24.20;47.40;;;;;;5070552;28;1020;-42
2022/04/13 06:36:06;;;;;;;;;;;24.20;47.40;;;;;;5069560;28;1018;-43
2022/04/13 06:38:33;;;;;;;;;;;24.10;47.50;;;;;;5069940;28;1238;-38
2022/04/13 06:40:59;;;;;;;;;;;24.10;47.40;;;;;;5070330;28;1008;-37
2022/04/13 06:43:26;;;;;;;;;;;24.10;47.50;;;;;;5070328;28;876;-37
2022/04/13 06:45:53;;;;;;;;;;;24.10;47.50;;;;;;5069921;28;1878;-38
2022/04/13 06:48:21;;;;;;;;;;;24.10;47.50;;;;;;5069162;28;1973;-38
2022/04/13 06:50:48;;;;;;;;;;;24.10;47.50;;;;;;5070186;28;1032;-39
2022/04/13 06:53:17;;;;;;;;;;;24.10;47.50;;;;;;5069248;28;988;-41
2022/04/13 06:55:44;;;;;;;;;;;24.10;47.40;;;;;;5082443;28;1117;-37
2022/04/13 06:58:11;;;;;;;;;;;24.10;47.90;;;;;;5093879;28;979;-37
2022/04/13 07:00:37;;;;;;;;;;;24.10;47.60;;;;;;5090778;28;944;-38
2022/04/13 07:03:04;;;;;;;;;;;24.10;47.60;;;;;;5089807;28;893;-38
2022/04/13 07:05:33;;;;;;;;;;;24.20;47.60;;;;;;5088492;28;1019;-39
2022/04/13 07:08:00;;;;;;;;;;;24.20;47.50;;;;;;5088010;28;1910;-41
2022/04/13 07:10:27;;;;;;;;;;;24.10;47.50;;;;;;5089467;28;999;-39
2022/04/13 07:12:54;;;;;;;;;;;24.20;47.40;;;;;;5089943;28;1063;-40
2022/04/13 07:15:21;;;;;;;;;;;24.10;47.50;;;;;;5090545;28;838;-40
2022/04/13 07:17:47;;;;;;;;;;;24.10;47.70;;;;;;5090553;28;1046;-41
2022/04/13 07:20:14;;;;;;;;;;;24.10;47.70;;;;;;5091182;28;1000;-39
2022/04/13 07:22:46;;;;;;;;;;;24.10;47.50;;;;;;5088293;28;1086;-40
2022/04/13 07:25:13;;;;;;;;;;;24.10;47.70;;;;;;5090153;28;885;-38
2022/04/13 07:27:40;;;;;;;;;;;24.20;47.50;;;;;;5088565;28;1901;-40
2022/04/13 07:30:08;;;;;;;;;;;24.20;47.60;;;;;;5088589;28;975;-39
2022/04/13 07:32:34;;;;;;;;;;;24.10;47.50;;;;;;5088562;28;1030;-38
2022/04/13 07:35:02;;;;;;;;;;;24.20;47.60;;;;;;5090101;28;853;-38
2022/04/13 07:37:31;;;;;;;;;;;24.20;47.60;;;;;;5090301;28;997;-39
2022/04/13 07:39:59;;;;;;;;;;;24.20;47.50;;;;;;5089101;28;940;-39
2022/04/13 07:42:27;;;;;;;;;;;24.20;47.50;;;;;;5088850;28;868;-39
2022/04/13 07:44:54;;;;;;;;;;;24.10;47.40;;;;;;5088322;28;687;-40
2022/04/13 07:47:21;;;;;;;;;;;24.20;47.60;;;;;;5088449;28;1986;-38
2022/04/13 07:49:48;;;;;;;;;;;24.20;47.60;;;;;;5087724;28;928;-39
2022/04/13 07:52:15;;;;;;;;;;;24.20;47.60;;;;;;5087787;28;892;-39
2022/04/13 07:54:44;;;;;;;;;;;24.20;47.40;;;;;;5089157;28;1029;-39
2022/04/13 07:57:12;;;;;;;;;;;24.20;47.50;;;;;;5088830;28;929;-39
2022/04/13 07:59:40;;;;;;;;;;;24.20;47.40;;;;;;5086555;28;1000;-39
2022/04/13 08:02:07;;;;;;;;;;;24.20;47.50;;;;;;5087023;28;929;-40
2022/04/13 08:04:34;;;;;;;;;;;24.20;47.40;;;;;;5088268;28;979;-39
2022/04/13 08:07:01;;;;;;;;;;;24.20;47.40;;;;;;5087307;28;1974;-39
2022/04/13 08:09:28;;;;;;;;;;;24.30;47.30;;;;;;5086988;28;1001;-38
2022/04/13 08:11:55;;;;;;;;;;;24.20;47.30;;;;;;5086033;28;977;-41
2022/04/13 08:14:23;;;;;;;;;;;24.20;47.20;;;;;;5087987;28;1002;-41
2022/04/13 08:16:50;;;;;;;;;;;24.20;47.30;;;;;;5087496;28;904;-41
2022/04/13 08:19:16;;;;;;;;;;;24.20;47.40;;;;;;5087579;28;1071;-39
2022/04/13 08:21:43;;;;;;;;;;;24.20;47.40;;;;;;5087152;28;944;-42
2022/04/13 08:24:10;;;;;;;;;;;24.20;47.40;;;;;;5087413;28;861;-39
2022/04/13 08:26:37;;;;;;;;;;;24.20;47.60;;;;;;5086444;28;1002;-40
2022/04/13 08:29:04;;;;;;;;;;;24.20;47.40;;;;;;5086041;28;1913;-39
2022/04/13 08:31:32;;;;;;;;;;;24.20;47.50;;;;;;5085355;28;990;-38
2022/04/13 08:33:59;;;;;;;;;;;24.30;47.40;;;;;;5086766;28;916;-41
2022/04/13 08:36:25;;;;;;;;;;;24.30;47.40;;;;;;5083949;28;983;-43
2022/04/13 08:38:52;;;;;;;;;;;24.30;47.50;;;;;;5084835;28;1548;-39
2022/04/13 08:41:21;;;;;;;;;;;24.20;47.40;;;;;;5086175;28;999;-40
2022/04/13 08:43:52;;;;;;;;;;;24.30;47.40;;;;;;5090765;28;1007;-43
2022/04/13 08:46:22;;;;;;;;;;;24.30;47.30;;;;;;5089883;28;932;-38
2022/04/13 08:48:52;;;;;;;;;;;24.30;47.30;;;;;;5090273;28;1909;-40
2022/04/13 08:51:20;;;;;;;;;;;24.30;47.20;;;;;;5089504;28;928;-38
2022/04/13 08:53:49;;;;;;;;;;;24.30;47.30;;;;;;5091130;28;940;-40
2022/04/13 08:56:17;;;;;;;;;;;24.30;47.20;;;;;;5089761;28;944;-43
2022/04/13 08:58:50;;;;;;;;;;;24.30;47.20;;;;;;5089903;28;992;-40
2022/04/13 09:01:21;;;;;;;;;;;24.30;47.30;;;;;;5089494;28;984;-41
2022/04/13 09:03:51;;;;;;;;;;;24.40;47.30;;;;;;5090030;28;909;-42
2022/04/13 09:06:21;;;;;;;;;;;24.40;47.30;;;;;;5090542;28;1017;-41
2022/04/13 09:08:50;;;;;;;;;;;24.40;47.30;;;;;;5090316;28;1906;-41
2022/04/13 09:11:17;;;;;;;;;;;24.40;47.30;;;;;;5091665;28;1002;-40
2022/04/13 09:13:45;;;;;;;;;;;24.40;47.30;;;;;;5090015;28;968;-38
2022/04/13 09:16:12;;;;;;;;;;;24.40;47.30;;;;;;5089391;28;937;-40
2022/04/13 09:18:39;;;;;;;;;;;24.50;47.20;;;;;;5089441;28;1767;-38
2022/04/13 09:21:05;;;;;;;;;;;24.40;47.20;;;;;;5090094;28;1020;-40
2022/04/13 09:23:34;;;;;;;;;;;24.40;47.30;;;;;;5090489;28;1150;-38
2022/04/13 09:26:01;;;;;;;;;;;24.50;47.30;;;;;;5089412;28;908;-39
2022/04/13 09:28:27;;;;;;;;;;;24.40;47.40;;;;;;5088993;28;1898;-39
2022/04/13 09:30:55;;;;;;;;;;;24.40;47.40;;;;;;5090248;28;1028;-40
2022/04/13 09:33:23;;;;;;;;;;;24.40;47.50;;;;;;5090081;28;850;-39
2022/04/13 09:35:50;;;;;;;;;;;24.40;47.50;;;;;;5089371;28;1015;-38
2022/04/13 09:38:19;;;;;;;;;;;24.50;47.30;;;;;;5089708;28;1189;-40
2022/04/13 09:40:47;;;;;;;;;;;24.40;47.40;;;;;;5089120;28;1022;-40
2022/04/13 09:43:14;;;;;;;;;;;24.50;47.30;;;;;;5090556;28;884;-39
2022/04/13 09:45:43;;;;;;;;;;;24.50;47.30;;;;;;5088420;28;882;-40
2022/04/13 09:48:11;;;;;;;;;;;24.40;47.50;;;;;;5089790;28;1906;-38
2022/04/13 09:50:39;;;;;;;;;;;24.50;47.40;;;;;;5088832;28;892;-39
2022/04/13 09:53:06;;;;;;;;;;;24.50;47.30;;;;;;5088017;28;961;-40
2022/04/13 09:55:40;;;;;;;;;;;24.50;47.50;;;;;;5089877;28;1004;-41
2022/04/13 09:58:09;;;;;;;;;;;24.50;47.40;;;;;;5088318;28;993;-39
2022/04/13 10:00:36;;;;;;;;;;;24.40;47.40;;;;;;5089924;28;997;-39
2022/04/13 10:03:07;;;;;;;;;;;24.50;47.40;;;;;;5089704;28;973;-38
2022/04/13 10:05:35;;;;;;;;;;;24.50;47.40;;;;;;5089320;28;928;-44
2022/04/13 10:08:02;;;;;;;;;;;24.60;47.40;;;;;;5087783;28;1980;-44
2022/04/13 10:10:29;;;;;;;;;;;24.50;47.40;;;;;;5089005;28;1921;-43
2022/04/13 10:12:55;;;;;;;;;;;24.40;47.50;;;;;;5088123;28;893;-44
2022/04/13 10:15:24;;;;;;;;;;;24.40;47.70;;;;;;5089202;28;881;-43
2022/04/13 10:17:52;;;;;;;;;;;24.40;47.70;;;;;;5089924;28;944;-43
2022/04/13 10:20:18;;;;;;;;;;;24.40;47.80;;;;;;5089862;28;973;-43
2022/04/13 10:22:59;;;;;;;;;;;24.40;49.00;;;;;;5090189;28;1126;-43
2022/04/13 10:25:27;;;;;;;;;;;24.40;47.80;;;;;;5090134;28;1010;-44
2022/04/13 10:27:54;;;;;;;;;;;24.40;47.90;;;;;;5090196;28;1984;-43
2022/04/13 10:30:26;;;;;;;;;;;24.50;48.10;;;;;;5089707;28;925;-45
2022/04/13 10:33:00;;;;;;;;;;;24.50;48.00;;;;;;5089043;28;886;-41
2022/04/13 10:35:28;;;;;;;;;;;24.50;47.90;;;;;;5089717;28;1002;-41
2022/04/13 10:37:55;;;;;;;;;;;24.50;48.00;;;;;;5089702;28;928;-44
2022/04/13 10:40:23;;;;;;;;;;;24.50;48.00;;;;;;5089532;28;877;-43
2022/04/13 10:42:51;;;;;;;;;;;24.50;48.10;;;;;;5088475;28;1007;-46
2022/04/13 10:45:18;;;;;;;;;;;24.50;48.20;;;;;;5088689;28;1748;-46
2022/04/13 10:47:54;;;;;;;;;;;24.50;48.30;;;;;;5089097;28;2036;-45
2022/04/13 10:50:30;;;;;;;;;;;24.50;48.20;;;;;;5090595;28;870;-46
2022/04/13 10:52:58;;;;;;;;;;;24.50;48.00;;;;;;5089377;28;953;-46
2022/04/13 10:55:27;;;;;;;;;;;24.60;48.20;;;;;;5088312;28;1028;-41
2022/04/13 10:57:54;;;;;;;;;;;24.60;48.10;;;;;;5088413;28;964;-39
2022/04/13 11:00:22;;;;;;;;;;;24.80;47.60;;;;;;5087395;28;1027;-41
2022/04/13 11:02:53;;;;;;;;;;;25.00;47.10;;;;;;5088709;28;1487;-40
2022/04/13 11:05:21;;;;;;;;;;;24.90;46.90;;;;;;5087558;28;877;-40
2022/04/13 11:07:48;;;;;;;;;;;25.00;46.40;;;;;;5088471;28;1980;-42
2022/04/13 11:10:17;;;;;;;;;;;25.00;46.20;;;;;;5087477;28;835;-43
2022/04/13 11:12:44;;;;;;;;;;;25.00;46.10;;;;;;5090095;28;990;-40
2022/04/13 11:15:10;;;;;;;;;;;25.10;46.00;;;;;;5089642;28;967;-42
2022/04/13 11:17:40;;;;;;;;;;;25.00;46.60;;;;;;5090547;28;1571;-45
2022/04/13 11:20:16;;;;;;;;;;;24.90;46.90;;;;;;5091181;28;968;-46
2022/04/13 11:22:43;;;;;;;;;;;24.80;47.20;;;;;;5089874;28;1024;-45
2022/04/13 11:25:10;;;;;;;;;;;24.80;47.60;;;;;;5089935;28;884;-45
2022/04/13 11:27:50;;;;;;;;;;;24.70;47.60;;;;;;5089208;28;1135;-45
2022/04/13 11:30:16;;;;;;;;;;;24.70;47.70;;;;;;5088438;28;992;-45
2022/04/13 11:32:44;;;;;;;;;;;24.80;47.80;;;;;;5088898;28;1010;-45
2022/04/13 11:35:14;;;;;;;;;;;24.80;47.80;;;;;;5088979;28;881;-45
2022/04/13 11:37:45;;;;;;;;;;;24.80;47.90;;;;;;5088134;28;1133;-45
2022/04/13 11:40:13;;;;;;;;;;;24.80;47.90;;;;;;5087823;28;1308;-45
2022/04/13 11:42:51;;;;;;;;;;;24.80;47.90;;;;;;5086836;28;1103;-43
2022/04/13 11:45:18;;;;;;;;;;;24.80;47.90;;;;;;5088683;28;983;-41
2022/04/13 11:47:46;;;;;;;;;;;24.80;47.90;;;;;;5090115;28;1710;-42
2022/04/13 11:50:22;;;;;;;;;;;24.80;47.90;;;;;;5091329;28;1505;-42
2022/04/13 11:52:51;;;;;;;;;;;24.90;48.00;;;;;;5090375;28;980;-43
2022/04/13 11:55:19;;;;;;;;;;;25.00;47.70;;;;;;5087880;28;900;-43
2022/04/13 11:58:14;;;;;;;;;;;25.20;47.40;;;;;;5089650;28;1045;-43
2022/04/13 12:00:41;;;;;;;;;;;25.00;47.70;;;;;;5088153;28;952;-44
2022/04/13 12:03:10;;;;;;;;;;;25.00;47.90;;;;;;5088404;28;929;-43
2022/04/13 12:05:37;;;;;;;;;;;25.00;48.00;;;;;;5088018;28;1036;-42
2022/04/13 12:08:10;;;;;;;;;;;25.00;48.00;;;;;;5087361;28;1980;-44
2022/04/13 12:10:37;;;;;;;;;;;25.00;48.30;;;;;;5087984;28;928;-43
2022/04/13 12:13:04;;;;;;;;;;;25.00;48.20;;;;;;5087900;28;845;-43
2022/04/13 12:15:41;;;;;;;;;;;25.00;48.40;;;;;;5086379;28;956;-43
2022/04/13 12:18:08;;;;;;;;;;;25.00;48.70;;;;;;5086381;28;877;-43
2022/04/13 12:20:35;;;;;;;;;;;25.00;48.80;;;;;;5087268;28;952;-43
2022/04/13 12:23:15;;;;;;;;;;;25.00;48.50;;;;;;5086599;28;865;-40
2022/04/13 12:25:43;;;;;;;;;;;25.00;48.70;;;;;;5087780;28;998;-43
2022/04/13 12:28:09;;;;;;;;;;;25.00;48.60;;;;;;5085850;28;1942;-43
2022/04/13 12:30:36;;;;;;;;;;;25.10;49.60;;;;;;5085866;28;989;-43
2022/04/13 12:33:12;;;;;;;;;;;25.10;48.40;;;;;;5086266;28;1012;-40
2022/04/13 12:35:46;;;;;;;;;;;25.10;48.30;;;;;;5086222;28;889;-42
2022/04/13 12:38:22;;;;;;;;;;;25.20;48.30;;;;;;5086129;28;1045;-43
2022/04/13 12:40:49;;;;;;;;;;;25.40;47.80;;;;;;5088490;28;1027;-45
2022/04/13 12:43:26;;;;;;;;;;;25.20;48.10;;;;;;5087778;28;893;-45
2022/04/13 12:45:52;;;;;;;;;;;25.20;49.50;;;;;;5087825;28;993;-45
2022/04/13 12:48:24;;;;;;;;;;;25.20;48.10;;;;;;5087513;28;1983;-45
2022/04/13 12:50:55;;;;;;;;;;;25.20;48.20;;;;;;5087209;28;875;-44
2022/04/13 12:53:23;;;;;;;;;;;25.30;48.00;;;;;;5087392;28;889;-45
2022/04/13 12:55:53;;;;;;;;;;;25.20;48.40;;;;;;5085690;28;998;-43
2022/04/13 12:58:20;;;;;;;;;;;25.10;48.40;;;;;;5087884;28;1018;-42
2022/04/13 13:00:51;;;;;;;;;;;25.10;48.40;;;;;;5085445;28;928;-44
2022/04/13 13:03:18;;;;;;;;;;;25.10;48.50;;;;;;5087488;28;986;-45
2022/04/13 13:05:45;;;;;;;;;;;25.10;48.50;;;;;;5085660;28;891;-45
2022/04/13 13:08:12;;;;;;;;;;;25.10;48.40;;;;;;5085643;28;931;-45
2022/04/13 13:10:43;;;;;;;;;;;25.10;48.40;;;;;;5087017;28;1004;-42
2022/04/13 13:13:10;;;;;;;;;;;25.10;48.40;;;;;;5082513;28;1182;-43
2022/04/13 13:15:37;;;;;;;;;;;25.10;48.40;;;;;;5069195;28;994;-44
2022/04/13 13:18:07;;;;;;;;;;;25.10;48.50;;;;;;5068097;28;993;-40
2022/04/13 13:20:35;;;;;;;;;;;25.10;48.50;;;;;;5067502;28;968;-44
2022/04/13 13:23:07;;;;;;;;;;;25.10;48.40;;;;;;5068119;28;996;-43
2022/04/13 13:25:41;;;;;;;;;;;25.10;48.40;;;;;;5067893;28;1012;-40
2022/04/13 13:28:10;;;;;;;;;;;25.00;48.50;;;;;;5069947;28;866;-41
2022/04/13 13:30:41;;;;;;;;;;;25.20;48.30;;;;;;5073686;28;2035;-43
2022/04/13 13:33:11;;;;;;;;;;;25.20;48.10;;;;;;5071378;28;975;-41
2022/04/13 13:35:38;;;;;;;;;;;25.20;48.20;;;;;;5070946;28;888;-46
2022/04/13 13:38:07;;;;;;;;;;;25.30;48.10;;;;;;5070674;28;1119;-42
2022/04/13 13:40:41;;;;;;;;;;;25.20;48.20;;;;;;5068783;28;893;-41
2022/04/13 13:43:10;;;;;;;;;;;25.20;48.40;;;;;;5070453;28;984;-36
2022/04/13 13:45:38;;;;;;;;;;;25.10;48.30;;;;;;5071857;28;1060;-35
2022/04/13 13:48:06;;;;;;;;;;;25.10;48.50;;;;;;5070582;28;940;-36
2022/04/13 13:50:34;;;;;;;;;;;25.10;48.50;;;;;;5071343;28;1906;-36
2022/04/13 13:53:00;;;;;;;;;;;25.10;48.50;;;;;;5070164;28;992;-37
2022/04/13 13:55:28;;;;;;;;;;;25.10;48.50;;;;;;5068684;28;1032;-37
2022/04/13 13:57:56;;;;;;;;;;;25.00;48.50;;;;;;5068383;28;1995;-35
2022/04/13 14:00:25;;;;;;;;;;;25.00;48.50;;;;;;5068320;28;1004;-36
2022/04/13 14:02:55;;;;;;;;;;;25.00;48.60;;;;;;5069815;28;1030;-35
2022/04/13 14:05:22;;;;;;;;;;;25.00;48.60;;;;;;5068732;28;977;-35
2022/04/13 14:07:49;;;;;;;;;;;25.20;48.40;;;;;;5069343;28;941;-36
2022/04/13 14:10:16;;;;;;;;;;;25.30;48.40;;;;;;5068984;28;1882;-45
2022/04/13 14:12:43;;;;;;;;;;;25.30;48.10;;;;;;5069853;28;1021;-45
2022/04/13 14:15:11;;;;;;;;;;;25.30;48.30;;;;;;5068651;28;1300;-45
2022/04/13 14:17:40;;;;;;;;;;;25.30;48.30;;;;;;5069971;28;888;-46
2022/04/13 14:20:07;;;;;;;;;;;25.20;48.40;;;;;;5069808;28;1000;-46
2022/04/13 14:22:34;;;;;;;;;;;25.20;48.40;;;;;;5068763;28;1022;-46
2022/04/13 14:25:01;;;;;;;;;;;25.20;48.60;;;;;;5069902;28;1040;-46
2022/04/13 14:27:28;;;;;;;;;;;25.20;48.50;;;;;;5069811;28;902;-46
2022/04/13 14:29:57;;;;;;;;;;;25.20;48.60;;;;;;5069465;28;1910;-46
2022/04/13 14:32:24;;;;;;;;;;;25.20;48.60;;;;;;5069688;28;985;-46
2022/04/13 14:34:53;;;;;;;;;;;25.20;48.60;;;;;;5071018;28;1524;-46
2022/04/13 14:37:20;;;;;;;;;;;25.20;48.60;;;;;;5070513;28;1013;-45
2022/04/13 14:39:47;;;;;;;;;;;25.20;49.70;;;;;;5067832;28;1128;-47
2022/04/13 14:42:14;;;;;;;;;;;25.20;48.60;;;;;;5066883;28;1007;-46